createdAt,value
2018-07-10T00:07:07.914Z,49.7
2018-07-10T00:17:53.018Z,50.2
2018-07-10T00:28:38.902Z,49.9
2018-07-10T00:39:24.678Z,50.3
2018-07-10T00:50:09.981Z,50.5
2018-07-10T01:00:23.649Z,49.3
2018-07-10T01:10:37.571Z,49.5
2018-07-10T01:21:23.280Z,49.6
2018-07-10T01:32:08.659Z,49.9
2018-07-10T01:42:20.635Z,50.0
2018-07-10T01:52:34.705Z,50.4
2018-07-10T02:03:19.899Z,50.3
2018-07-10T02:14:06.223Z,50.5
2018-07-10T02:24:51.521Z,50.5
2018-07-10T02:35:05.911Z,50.1
2018-07-10T02:45:20.273Z,51.0
2018-07-10T02:55:34.283Z,51.3
2018-07-10T03:05:48.345Z,51.8
2018-07-10T03:16:34.031Z,51.7
2018-07-10T03:26:48.582Z,51.0
2018-07-10T03:37:00.780Z,51.7
2018-07-10T03:47:14.806Z,51.5
2018-07-10T03:57:29.435Z,52.5
2018-07-10T04:08:14.866Z,52.6
2018-07-10T04:19:00.516Z,52.8
2018-07-10T04:29:13.756Z,52.3
2018-07-10T04:39:27.414Z,53.2
2018-07-10T04:49:41.509Z,53.5
2018-07-10T04:59:55.685Z,53.1
2018-07-10T05:10:09.896Z,53.2
2018-07-10T05:20:24.241Z,53.0
2018-07-10T05:30:38.423Z,53.0
2018-07-10T05:40:50.581Z,54.3
2018-07-10T05:51:04.679Z,55.2
2018-07-10T06:01:18.857Z,54.5
2018-07-10T06:11:34.089Z,56.3
2018-07-10T06:21:45.356Z,58.9
2018-07-10T06:32:00.353Z,57.6
2018-07-10T06:42:11.987Z,58.6
2018-07-10T06:52:57.577Z,58.4
2018-07-10T07:03:09.223Z,59.5
2018-07-10T07:17:06.855Z,59.9
2018-07-10T07:28:19.579Z,58.9
2018-07-10T07:38:33.067Z,60.4
2018-07-10T07:48:46.296Z,62.0
2018-07-10T07:59:32.622Z,62.6
2018-07-10T08:09:46.994Z,63.7
2018-07-10T08:20:01.117Z,63.1
2018-07-10T08:30:16.668Z,63.5
2018-07-10T08:42:22.332Z,63.0
2018-07-10T08:52:36.581Z,64.2
2018-07-10T09:02:50.456Z,64.3
2018-07-10T09:13:05.179Z,62.8
2018-07-10T09:23:18.799Z,62.9
2018-07-10T09:34:03.621Z,63.8
2018-07-10T09:44:16.862Z,64.4
2018-07-10T09:54:28.393Z,65.1
2018-07-10T10:07:06.591Z,65.2
2018-07-10T10:28:56.473Z,63.9
2018-07-10T11:06:00.542Z,65.8
2018-07-10T11:16:14.051Z,62.8
2018-07-10T11:26:28.036Z,63.1
2018-07-10T11:37:34.618Z,63.3
2018-07-10T11:47:51.732Z,63.0
2018-07-10T11:59:35.103Z,62.5
2018-07-10T12:09:49.146Z,62.4
2018-07-10T12:20:03.717Z,61.9
2018-07-10T12:30:18.003Z,61.7
2018-07-10T12:40:32.436Z,61.7
2018-07-10T13:16:08.074Z,59.5
2018-07-10T13:28:30.051Z,56.0
2018-07-10T13:39:44.941Z,52.8
2018-07-10T13:50:42.707Z,50.9
2018-07-10T14:04:10.859Z,49.0
2018-07-10T14:14:59.286Z,49.2
2018-07-10T14:26:54.161Z,47.2
2018-07-10T14:37:13.127Z,46.9
2018-07-10T14:48:02.362Z,45.6
2018-07-10T14:58:58.981Z,44.2
2018-07-10T15:10:34.150Z,44.2
2018-07-10T15:20:49.384Z,42.5
2018-07-10T15:34:18.283Z,42.6
2018-07-10T15:44:32.506Z,42.4
2018-07-10T15:54:46.371Z,41.7
2018-07-10T16:04:59.927Z,41.8
2018-07-10T16:15:17.618Z,42.6
2018-07-10T16:27:51.637Z,42.2
2018-07-10T16:38:05.246Z,42.5
2018-07-10T16:48:19.795Z,41.5
2018-07-10T16:58:33.707Z,41.9
2018-07-10T17:08:44.920Z,42.2
2018-07-10T17:18:58.365Z,41.9
2018-07-10T17:29:13.147Z,41.9
2018-07-10T17:39:27.115Z,42.2
2018-07-10T17:49:41.462Z,42.7
2018-07-10T18:01:49.343Z,43.1
2018-07-10T18:12:37.401Z,43.5
2018-07-10T18:23:26.493Z,43.2
2018-07-10T18:51:32.784Z,43.4
2018-07-10T19:02:58.574Z,43.7
2018-07-10T19:14:59.036Z,44.4
2018-07-10T19:25:49.478Z,44.8
2018-07-10T19:37:14.677Z,45.3
2018-07-10T19:48:03.763Z,45.5
2018-07-10T19:59:26.937Z,46.0
2018-07-10T20:10:40.230Z,46.2
2018-07-10T20:22:11.536Z,46.2
2018-07-10T20:32:26.907Z,46.5
2018-07-10T20:42:38.444Z,46.9
2018-07-10T20:53:24.800Z,47.2
2018-07-10T21:03:38.927Z,47.4
2018-07-10T21:13:52.249Z,47.8
2018-07-10T21:24:06.325Z,48.2
2018-07-10T21:34:19.974Z,48.5
2018-07-10T21:44:34.222Z,48.9
2018-07-10T21:54:48.196Z,49.0
2018-07-10T22:05:01.769Z,49.1
2018-07-10T22:15:15.829Z,49.5
2018-07-10T22:26:01.385Z,49.4
2018-07-10T22:36:14.741Z,49.4
2018-07-10T22:46:30.153Z,49.4
2018-07-10T22:56:44.010Z,49.5
2018-07-10T23:06:55.540Z,49.8
2018-07-10T23:17:09.551Z,49.7
2018-07-10T23:27:54.234Z,49.5
2018-07-10T23:38:39.192Z,49.2
2018-07-10T23:48:53.445Z,49.4
2018-07-10T23:59:07.513Z,50.1
